Hazen, Nevada
Current Conditions -  °F | °C
As of 4:56 AM on Friday 24 Oct 2014 (Local Time) from KNFL Reporting Station
Clear Clear  
Wind Chill: 34°   Ceiling: Unl
Heat Index: 38°   Visibility: 10mi
Dew Point: 28°   Wind: 5mph
Humidity: 68%   Direction: 190°S
Pressure: 30.06"   Gusts: NA
Location:  39.5869°N, 119.152°W
Report Text: KNFL 241156Z AUTO 19004KT 10SM CLR 03/M02 A3006 RMK AO2 SLP147 T00331022 10067 20028 56005
Loading
Personal Weather Stations






























Interactive Weather Map
Tropical Storm Tracking
New forecast layout! Learn more

10-Day Weather Forecast

Advertisements
Track Severe Weather on mobile